Terminal Aerodrome Forecast
Issued by NWS

Home | Current Version | Previous Version | Text Only | Print | Product List | Glossary Off
Versions: 1 2 3 4 5 6 7 8 9 10 11 12 13 14 15 16 17 18 19

000
FTUS43 KMPX 241739
TAFAXN
TAF
KAXN 241739Z 2418/2518 28010KT P6SM SCT120 BKN250
     FM242300 29005KT P6SM OVC020
     FM250000 04005KT 2SM -SN OVC012
      TEMPO 2502/2506 3/4SM -SN VV006
     FM250700 05009KT 5SM -SN SCT007 OVC012
     FM251000 04008KT P6SM BKN025
     FM251100 03007KT P6SM SCT025=

USA.gov is the U.S. government's official web portal to all federal, state and local government web resources and services.